Terminal Aerodrome Forecast
Issued by NWS Sioux Falls, SD

Home | Current Version | Previous Version | Text Only | Print | Product List | Glossary On
Versions: 1 2 3 4 5 6 7 8 9 10 11 12 13 14
000
FTUS43 KFSD 220358 AAA
TAFHON
TAF AMD
KHON 220358Z 2204/2224 01011G20KT P6SM OVC050
     FM220500 36012G21KT P6SM -SN OVC035
     FM220900 35015G23KT P6SM OVC015
     FM221400 35016G24KT 6SM BLSN OVC008
     FM222100 34016G24KT P6SM SCT035=

USA.gov is the U.S. government's official web portal to all federal, state and local government web resources and services.